Time;durP1;ratioP1;P1;durP2;ratioP2;P2;SDS_P1;SDS_P2;PMS_P1;PMS_P2;Temp;Humidity;BMP_temperature;BMP_pressure;BME280_temperature;BME280_humidity;BME280_pressure;Samples;Min_cycle;Max_cycle;Signal;HPM_P1;HPM_P2
2021/05/25 00:00:21;;;;;;;8.74;5.89;;;;;;;;;;382443;137;859371;-59
2021/05/25 00:01:22;;;;;;;9.39;5.93;;;;;;;;;;386663;137;859965;-59
2021/05/25 00:02:24;;;;;;;17.26;6.28;;;;;;;;;;388101;137;867419;-59
2021/05/25 00:03:25;;;;;;;7.85;5.68;;;;;;;;;;385361;137;865688;-60
2021/05/25 00:04:27;;;;;;;10.52;6.96;;;;;;;;;;388151;137;857940;-59
2021/05/25 00:05:29;;;;;;;11.31;6.54;;;;;;;;;;385528;138;857433;-59
2021/05/25 00:06:33;;;;;;;10.49;6.59;;;;;;;;;;384062;137;857353;-59
2021/05/25 00:07:34;;;;;;;9.24;6.75;;;;;;;;;;390545;137;858426;-59
2021/05/25 00:08:36;;;;;;;8.96;7.23;;;;;;;;;;386140;137;866790;-59
2021/05/25 00:09:37;;;;;;;10.08;7.18;;;;;;;;;;385892;137;866745;-59
2021/05/25 00:10:40;;;;;;;15.88;7.32;;;;;;;;;;384710;138;858518;-59
2021/05/25 00:11:41;;;;;;;16.74;6.91;;;;;;;;;;385373;137;858247;-59
2021/05/25 00:12:43;;;;;;;9.74;7.15;;;;;;;;;;385297;137;865782;-59
2021/05/25 00:13:44;;;;;;;9.51;6.71;;;;;;;;;;387808;137;858547;-59
2021/05/25 00:14:46;;;;;;;9.49;6.89;;;;;;;;;;384978;137;857825;-59
2021/05/25 00:15:52;;;;;;;12.67;7.04;;;;;;;;;;388039;138;857284;-59
2021/05/25 00:16:52;;;;;;;9.09;7.07;;;;;;;;;;384787;138;857131;-59
2021/05/25 00:17:56;;;;;;;11.49;6.89;;;;;;;;;;388010;137;859448;-59
2021/05/25 00:18:57;;;;;;;11.18;6.67;;;;;;;;;;387473;137;865105;-59
2021/05/25 00:19:59;;;;;;;7.84;6.51;;;;;;;;;;386516;138;867927;-60
2021/05/25 00:21:01;;;;;;;12.02;6.64;;;;;;;;;;388272;138;863322;-59
2021/05/25 00:22:02;;;;;;;11.69;6.48;;;;;;;;;;385800;138;865055;-59
2021/05/25 00:23:04;;;;;;;8.75;6.45;;;;;;;;;;383526;138;857690;-59
2021/05/25 00:24:06;;;;;;;9.95;6.35;;;;;;;;;;376097;140;859375;-59
2021/05/25 00:25:09;;;;;;;10.21;6.10;;;;;;;;;;381308;137;858989;-59
2021/05/25 00:26:11;;;;;;;9.93;6.55;;;;;;;;;;375451;139;859995;-59
2021/05/25 00:27:12;;;;;;;9.06;6.26;;;;;;;;;;381290;141;866322;-58
2021/05/25 00:28:14;;;;;;;9.74;6.74;;;;;;;;;;384920;138;857383;-59
2021/05/25 00:29:15;;;;;;;8.68;6.26;;;;;;;;;;381038;139;866967;-59
2021/05/25 00:30:18;;;;;;;11.49;6.53;;;;;;;;;;380434;139;866700;-59
2021/05/25 00:31:20;;;;;;;8.11;6.31;;;;;;;;;;385268;138;865626;-59
2021/05/25 00:32:21;;;;;;;8.89;6.61;;;;;;;;;;385702;139;865496;-59
2021/05/25 00:33:23;;;;;;;8.90;6.19;;;;;;;;;;384337;138;857432;-59
2021/05/25 00:34:25;;;;;;;11.51;6.29;;;;;;;;;;385358;139;857194;-58
2021/05/25 00:35:28;;;;;;;11.80;6.59;;;;;;;;;;382890;138;865048;-58
2021/05/25 00:36:30;;;;;;;15.89;6.51;;;;;;;;;;379951;140;857339;-58
2021/05/25 00:37:32;;;;;;;11.01;6.08;;;;;;;;;;382631;139;865316;-59
2021/05/25 00:38:34;;;;;;;13.51;6.68;;;;;;;;;;382169;138;866822;-58
2021/05/25 00:39:36;;;;;;;9.11;6.11;;;;;;;;;;379828;140;857378;-59
2021/05/25 00:40:39;;;;;;;14.17;6.37;;;;;;;;;;388713;138;857462;-59
2021/05/25 00:41:41;;;;;;;13.87;7.43;;;;;;;;;;389048;137;866529;-59
2021/05/25 00:42:43;;;;;;;12.97;7.24;;;;;;;;;;382227;140;857428;-59
2021/05/25 00:43:45;;;;;;;15.11;7.61;;;;;;;;;;383389;139;858889;-59
2021/05/25 00:44:46;;;;;;;12.09;6.85;;;;;;;;;;381831;140;857746;-59
2021/05/25 00:45:48;;;;;;;17.01;7.00;;;;;;;;;;384816;138;864955;-59
2021/05/25 00:46:51;;;;;;;9.69;6.86;;;;;;;;;;386197;137;857687;-59
2021/05/25 00:47:52;;;;;;;12.63;6.67;;;;;;;;;;378271;139;857206;-58
2021/05/25 00:48:54;;;;;;;9.16;7.14;;;;;;;;;;377852;140;866852;-59
2021/05/25 00:49:56;;;;;;;10.19;6.56;;;;;;;;;;379724;138;866957;-59
2021/05/25 00:50:57;;;;;;;10.41;6.85;;;;;;;;;;380378;140;866567;-59
2021/05/25 00:51:59;;;;;;;12.71;6.41;;;;;;;;;;382809;140;865777;-58
2021/05/25 00:53:01;;;;;;;15.43;7.44;;;;;;;;;;382011;139;857175;-59
2021/05/25 00:54:03;;;;;;;13.15;7.05;;;;;;;;;;377639;142;857673;-59
2021/05/25 00:55:05;;;;;;;11.36;7.20;;;;;;;;;;377658;139;858812;-59
2021/05/25 00:56:07;;;;;;;10.19;7.24;;;;;;;;;;381204;141;857782;-60
2021/05/25 00:57:09;;;;;;;8.40;6.34;;;;;;;;;;382190;140;858515;-59
2021/05/25 00:58:11;;;;;;;14.03;7.19;;;;;;;;;;381639;138;864962;-59
2021/05/25 00:59:12;;;;;;;11.49;6.79;;;;;;;;;;382830;137;857329;-59
2021/05/25 01:00:14;;;;;;;14.37;7.21;;;;;;;;;;381901;138;865029;-59
2021/05/25 01:01:16;;;;;;;12.24;7.51;;;;;;;;;;382232;138;857356;-59
2021/05/25 01:02:17;;;;;;;10.60;7.26;;;;;;;;;;382102;141;864951;-58
2021/05/25 01:03:20;;;;;;;16.60;7.09;;;;;;;;;;380979;138;857670;-58
2021/05/25 01:04:21;;;;;;;13.55;6.58;;;;;;;;;;381141;140;859375;-58
2021/05/25 01:05:23;;;;;;;12.38;6.41;;;;;;;;;;381548;141;858951;-59
2021/05/25 01:06:26;;;;;;;11.59;7.49;;;;;;;;;;380565;138;866017;-58
2021/05/25 01:07:27;;;;;;;16.89;7.21;;;;;;;;;;379744;138;865656;-58
2021/05/25 01:08:29;;;;;;;11.88;7.41;;;;;;;;;;384083;139;859732;-58
2021/05/25 01:09:33;;;;;;;10.86;6.82;;;;;;;;;;380592;137;865075;-58
2021/05/25 01:10:39;;;;;;;11.94;6.78;;;;;;;;;;381991;138;864989;-58
2021/05/25 01:11:41;;;;;;;12.47;6.61;;;;;;;;;;379559;138;859410;-58
2021/05/25 01:12:57;;;;;;;14.65;7.68;;;;;;;;;;378365;141;866074;-58
2021/05/25 01:13:59;;;;;;;16.62;7.57;;;;;;;;;;377754;139;857817;-59
2021/05/25 01:15:04;;;;;;;9.77;7.43;;;;;;;;;;377807;140;858186;-60
2021/05/25 01:16:05;;;;;;;15.98;6.81;;;;;;;;;;377252;142;859149;-58
2021/05/25 01:17:07;;;;;;;10.81;7.19;;;;;;;;;;380034;137;865318;-59
2021/05/25 01:18:09;;;;;;;16.96;6.99;;;;;;;;;;382334;138;865894;-59
2021/05/25 01:19:10;;;;;;;18.26;7.83;;;;;;;;;;383011;137;864984;-60
2021/05/25 01:20:13;;;;;;;10.63;6.79;;;;;;;;;;382921;139;857331;-58
2021/05/25 01:21:14;;;;;;;12.26;7.25;;;;;;;;;;388246;138;857338;-59
2021/05/25 01:22:16;;;;;;;9.00;6.43;;;;;;;;;;375771;140;858871;-59
2021/05/25 01:23:18;;;;;;;10.77;7.11;;;;;;;;;;381936;139;864930;-59
2021/05/25 01:24:19;;;;;;;8.49;6.38;;;;;;;;;;381729;140;857155;-59
2021/05/25 01:25:23;;;;;;;9.40;6.62;;;;;;;;;;378912;140;857286;-59
2021/05/25 01:26:27;;;;;;;9.94;6.07;;;;;;;;;;377436;142;866308;-59
2021/05/25 01:27:29;;;;;;;12.61;6.73;;;;;;;;;;378066;141;866118;-59
2021/05/25 01:28:30;;;;;;;11.41;5.92;;;;;;;;;;379708;139;859021;-59
2021/05/25 01:29:33;;;;;;;15.21;6.18;;;;;;;;;;378688;140;865174;-59
2021/05/25 01:30:36;;;;;;;9.48;5.47;;;;;;;;;;380348;140;857317;-59
2021/05/25 01:31:37;;;;;;;8.92;5.33;;;;;;;;;;383213;140;859341;-59
2021/05/25 01:32:39;;;;;;;9.73;5.66;;;;;;;;;;381482;140;857191;-58
2021/05/25 01:33:41;;;;;;;11.87;5.38;;;;;;;;;;386173;137;865159;-58
2021/05/25 01:34:43;;;;;;;12.14;5.68;;;;;;;;;;378159;139;857225;-59
2021/05/25 01:35:44;;;;;;;7.99;5.44;;;;;;;;;;383249;138;857160;-58
2021/05/25 01:36:46;;;;;;;8.73;5.29;;;;;;;;;;383336;138;865674;-58
2021/05/25 01:37:49;;;;;;;10.56;5.51;;;;;;;;;;377355;140;858892;-59
2021/05/25 01:38:51;;;;;;;8.55;6.35;;;;;;;;;;381922;138;857316;-58
2021/05/25 01:39:54;;;;;;;7.24;4.89;;;;;;;;;;381761;138;867125;-58
2021/05/25 01:40:57;;;;;;;7.99;5.59;;;;;;;;;;382067;140;864856;-58
2021/05/25 01:41:59;;;;;;;9.18;5.36;;;;;;;;;;382147;140;866126;-58
2021/05/25 01:43:00;;;;;;;8.54;5.50;;;;;;;;;;387575;138;857271;-58
2021/05/25 01:44:02;;;;;;;9.31;5.40;;;;;;;;;;379236;140;865006;-58
2021/05/25 01:45:05;;;;;;;8.50;5.99;;;;;;;;;;378307;142;857312;-58
2021/05/25 01:46:08;;;;;;;10.95;5.40;;;;;;;;;;378479;139;858691;-58
2021/05/25 01:47:09;;;;;;;10.06;5.76;;;;;;;;;;382777;138;865729;-59
2021/05/25 01:48:11;;;;;;;7.52;5.36;;;;;;;;;;387590;137;858021;-58
2021/05/25 01:49:13;;;;;;;10.69;5.56;;;;;;;;;;386794;137;864995;-58
2021/05/25 01:50:17;;;;;;;9.80;4.86;;;;;;;;;;381087;138;859111;-58
2021/05/25 01:51:19;;;;;;;7.91;5.16;;;;;;;;;;382486;140;859558;-58
2021/05/25 01:52:21;;;;;;;9.81;5.19;;;;;;;;;;378158;140;864829;-58
2021/05/25 01:53:27;;;;;;;6.91;5.16;;;;;;;;;;382343;141;857220;-59
2021/05/25 01:54:29;;;;;;;6.03;5.27;;;;;;;;;;374831;138;859767;-58
2021/05/25 01:55:37;;;;;;;9.66;4.73;;;;;;;;;;387604;138;859244;-57
2021/05/25 01:56:41;;;;;;;13.56;5.22;;;;;;;;;;385383;138;863550;-59
2021/05/25 01:57:42;;;;;;;9.67;4.86;;;;;;;;;;385657;138;865606;-59
2021/05/25 01:58:44;;;;;;;8.76;4.89;;;;;;;;;;387758;137;857224;-59
2021/05/25 01:59:45;;;;;;;8.38;4.57;;;;;;;;;;381675;138;857226;-59
2021/05/25 02:00:48;;;;;;;9.11;5.24;;;;;;;;;;388016;138;858842;-59
2021/05/25 02:01:50;;;;;;;8.06;4.58;;;;;;;;;;387607;138;865059;-59
2021/05/25 02:02:51;;;;;;;12.53;5.13;;;;;;;;;;384916;136;860151;-58
2021/05/25 02:03:53;;;;;;;11.04;4.86;;;;;;;;;;388386;136;865021;-59
2021/05/25 02:04:54;;;;;;;15.75;5.28;;;;;;;;;;378934;138;857255;-59
2021/05/25 02:05:57;;;;;;;13.89;4.99;;;;;;;;;;383843;137;857378;-59
2021/05/25 02:06:59;;;;;;;10.23;5.02;;;;;;;;;;379570;140;857678;-59
2021/05/25 02:08:00;;;;;;;8.96;4.71;;;;;;;;;;378198;138;864982;-59
2021/05/25 02:09:02;;;;;;;9.11;4.91;;;;;;;;;;384188;137;866541;-59
2021/05/25 02:10:04;;;;;;;9.30;4.84;;;;;;;;;;381438;140;866620;-59
2021/05/25 02:11:08;;;;;;;7.24;4.59;;;;;;;;;;378992;138;857812;-59
2021/05/25 02:12:11;;;;;;;7.93;4.47;;;;;;;;;;384404;140;859000;-58
2021/05/25 02:13:18;;;;;;;6.02;4.45;;;;;;;;;;383696;140;858983;-59
2021/05/25 02:14:19;;;;;;;8.96;4.73;;;;;;;;;;379984;138;857343;-59
2021/05/25 02:15:21;;;;;;;8.94;4.89;;;;;;;;;;374839;141;858777;-59
2021/05/25 02:16:23;;;;;;;8.43;4.45;;;;;;;;;;373912;140;866601;-59
2021/05/25 02:17:26;;;;;;;7.06;4.58;;;;;;;;;;384525;137;857244;-59
2021/05/25 02:18:28;;;;;;;8.53;4.76;;;;;;;;;;384057;138;859018;-60
2021/05/25 02:19:30;;;;;;;7.01;5.01;;;;;;;;;;386554;137;857362;-59
2021/05/25 02:20:33;;;;;;;14.46;5.25;;;;;;;;;;383105;138;857635;-59
2021/05/25 02:21:35;;;;;;;8.26;4.51;;;;;;;;;;384556;139;857358;-59
2021/05/25 02:22:37;;;;;;;5.93;4.34;;;;;;;;;;384543;137;857276;-59
2021/05/25 02:23:38;;;;;;;7.71;4.74;;;;;;;;;;383655;138;864857;-60
2021/05/25 02:24:40;;;;;;;6.89;4.69;;;;;;;;;;382620;138;865324;-59
2021/05/25 02:25:42;;;;;;;12.92;5.26;;;;;;;;;;384501;137;857882;-58
2021/05/25 02:26:44;;;;;;;7.21;4.59;;;;;;;;;;386843;138;859089;-59
2021/05/25 02:27:45;;;;;;;13.92;5.06;;;;;;;;;;386615;138;857439;-59
2021/05/25 02:28:47;;;;;;;8.48;4.84;;;;;;;;;;383374;140;865719;-58
2021/05/25 02:29:49;;;;;;;5.11;4.26;;;;;;;;;;378435;141;858651;-58
2021/05/25 02:30:50;;;;;;;8.57;4.60;;;;;;;;;;386797;138;857399;-58
2021/05/25 02:31:54;;;;;;;13.01;5.15;;;;;;;;;;387017;138;864884;-58
2021/05/25 02:32:57;;;;;;;8.34;4.61;;;;;;;;;;384432;138;858662;-57
2021/05/25 02:33:59;;;;;;;5.94;4.36;;;;;;;;;;386103;138;858032;-59
2021/05/25 02:35:00;;;;;;;11.07;4.74;;;;;;;;;;385318;138;865235;-60
2021/05/25 02:36:03;;;;;;;7.89;4.39;;;;;;;;;;387416;138;857297;-59
2021/05/25 02:37:04;;;;;;;8.45;4.51;;;;;;;;;;381104;141;857684;-59
2021/05/25 02:38:06;;;;;;;8.96;4.12;;;;;;;;;;386499;138;858825;-59
2021/05/25 02:39:08;;;;;;;5.67;4.42;;;;;;;;;;382914;138;857457;-59
2021/05/25 02:40:11;;;;;;;9.43;4.59;;;;;;;;;;384709;138;857278;-59
2021/05/25 02:41:13;;;;;;;7.66;4.43;;;;;;;;;;387051;138;857435;-60
2021/05/25 02:42:14;;;;;;;7.09;4.28;;;;;;;;;;375290;140;859017;-59
2021/05/25 02:43:17;;;;;;;7.60;4.17;;;;;;;;;;375568;141;857868;-59
2021/05/25 02:44:18;;;;;;;8.94;4.67;;;;;;;;;;385308;138;866146;-59
2021/05/25 02:45:20;;;;;;;8.27;4.40;;;;;;;;;;380188;141;865022;-59
2021/05/25 02:46:23;;;;;;;9.13;4.51;;;;;;;;;;376516;138;865697;-58
2021/05/25 02:47:25;;;;;;;6.91;4.26;;;;;;;;;;383990;137;857779;-58
2021/05/25 02:48:26;;;;;;;17.98;5.65;;;;;;;;;;387799;138;862123;-58
2021/05/25 02:49:28;;;;;;;10.08;4.79;;;;;;;;;;385040;137;858866;-56
2021/05/25 02:50:30;;;;;;;10.14;4.77;;;;;;;;;;384655;137;857347;-58
2021/05/25 02:51:31;;;;;;;7.47;4.34;;;;;;;;;;383327;138;865223;-58
2021/05/25 02:52:34;;;;;;;6.38;4.56;;;;;;;;;;386174;138;857783;-58
2021/05/25 02:53:36;;;;;;;9.54;4.93;;;;;;;;;;383941;137;864856;-60
2021/05/25 02:54:37;;;;;;;7.14;4.74;;;;;;;;;;386697;137;864944;-62
2021/05/25 02:55:39;;;;;;;10.04;4.64;;;;;;;;;;383079;138;863046;-60
2021/05/25 02:56:43;;;;;;;9.75;4.36;;;;;;;;;;386212;138;857764;-60
2021/05/25 02:57:45;;;;;;;6.23;4.57;;;;;;;;;;387469;138;857852;-61
2021/05/25 02:58:47;;;;;;;7.31;4.56;;;;;;;;;;383183;138;858841;-62
2021/05/25 02:59:48;;;;;;;7.74;4.48;;;;;;;;;;385122;136;868010;-63
2021/05/25 03:00:51;;;;;;;10.03;4.99;;;;;;;;;;383963;137;866389;-64
2021/05/25 03:01:53;;;;;;;8.82;4.49;;;;;;;;;;383772;138;858998;-62
2021/05/25 03:02:55;;;;;;;6.17;4.23;;;;;;;;;;384102;140;865341;-64
2021/05/25 03:03:56;;;;;;;12.48;4.47;;;;;;;;;;383275;140;859582;-62
2021/05/25 03:04:58;;;;;;;11.63;4.41;;;;;;;;;;381429;139;865465;-62
2021/05/25 03:06:00;;;;;;;9.39;4.37;;;;;;;;;;380761;140;859854;-61
2021/05/25 03:07:01;;;;;;;12.69;4.38;;;;;;;;;;382788;139;865657;-62
2021/05/25 03:08:03;;;;;;;6.35;4.24;;;;;;;;;;383040;138;866832;-62
2021/05/25 03:09:05;;;;;;;7.05;4.48;;;;;;;;;;374589;140;857280;-61
2021/05/25 03:10:08;;;;;;;11.85;3.68;;;;;;;;;;374986;140;859894;-61
2021/05/25 03:11:10;;;;;;;9.23;3.99;;;;;;;;;;375212;140;858768;-61
2021/05/25 03:12:11;;;;;;;8.86;3.95;;;;;;;;;;372165;140;858863;-64
2021/05/25 03:13:13;;;;;;;7.54;4.09;;;;;;;;;;376036;140;857923;-63
2021/05/25 03:14:15;;;;;;;7.60;4.11;;;;;;;;;;381033;140;866259;-60
2021/05/25 03:15:18;;;;;;;8.78;3.89;;;;;;;;;;380418;138;864968;-61
2021/05/25 03:16:22;;;;;;;6.68;4.34;;;;;;;;;;382279;138;857284;-61
2021/05/25 03:17:24;;;;;;;7.73;4.05;;;;;;;;;;383316;140;857206;-63
2021/05/25 03:18:25;;;;;;;5.72;4.09;;;;;;;;;;383134;140;859125;-60
2021/05/25 03:19:27;;;;;;;7.42;4.64;;;;;;;;;;383028;138;858900;-60
2021/05/25 03:20:30;;;;;;;11.46;5.25;;;;;;;;;;379418;140;866642;-60
2021/05/25 03:21:32;;;;;;;8.01;4.40;;;;;;;;;;374075;142;857866;-65
2021/05/25 03:22:33;;;;;;;8.55;4.16;;;;;;;;;;377089;142;859213;-61
2021/05/25 03:23:35;;;;;;;5.94;4.09;;;;;;;;;;375196;143;857905;-62
2021/05/25 03:24:37;;;;;;;5.74;4.36;;;;;;;;;;373844;141;859946;-62
2021/05/25 03:25:39;;;;;;;15.01;5.31;;;;;;;;;;383032;138;866377;-61
2021/05/25 03:26:42;;;;;;;9.71;4.98;;;;;;;;;;378704;140;859010;-61
2021/05/25 03:27:44;;;;;;;7.41;4.67;;;;;;;;;;377110;140;857211;-57
2021/05/25 03:28:45;;;;;;;6.96;4.55;;;;;;;;;;377480;140;866492;-58
2021/05/25 03:29:47;;;;;;;6.74;4.53;;;;;;;;;;371087;143;858230;-58
2021/05/25 03:30:50;;;;;;;6.73;3.92;;;;;;;;;;381675;137;864730;-59
2021/05/25 03:31:52;;;;;;;11.19;4.94;;;;;;;;;;381959;139;858957;-59
2021/05/25 03:32:54;;;;;;;5.85;4.28;;;;;;;;;;377569;139;857381;-59
2021/05/25 03:33:55;;;;;;;5.84;4.13;;;;;;;;;;378985;140;857360;-59
2021/05/25 03:34:57;;;;;;;9.41;4.31;;;;;;;;;;379375;139;866748;-60
2021/05/25 03:35:58;;;;;;;8.20;4.36;;;;;;;;;;382355;139;857383;-59
2021/05/25 03:37:00;;;;;;;5.94;4.08;;;;;;;;;;372974;142;866864;-58
2021/05/25 03:38:02;;;;;;;6.86;4.35;;;;;;;;;;381018;140;859347;-59
2021/05/25 03:39:04;;;;;;;6.37;3.98;;;;;;;;;;382997;138;858532;-60
2021/05/25 03:40:07;;;;;;;5.53;3.97;;;;;;;;;;383583;140;858782;-60
2021/05/25 03:41:09;;;;;;;6.55;4.27;;;;;;;;;;383982;140;864713;-61
2021/05/25 03:42:10;;;;;;;5.50;3.96;;;;;;;;;;383034;140;858728;-59
2021/05/25 03:43:12;;;;;;;6.02;3.98;;;;;;;;;;383487;140;866165;-59
2021/05/25 03:44:14;;;;;;;6.94;4.14;;;;;;;;;;382641;140;858975;-63
2021/05/25 03:45:16;;;;;;;6.58;4.21;;;;;;;;;;383716;138;858505;-60
2021/05/25 03:46:18;;;;;;;9.54;3.75;;;;;;;;;;382171;140;857354;-60
2021/05/25 03:47:20;;;;;;;7.69;4.31;;;;;;;;;;383028;140;858654;-61
2021/05/25 03:48:22;;;;;;;5.29;3.71;;;;;;;;;;381431;139;859438;-61
2021/05/25 03:49:23;;;;;;;8.23;3.59;;;;;;;;;;379205;140;866322;-61
2021/05/25 03:50:25;;;;;;;5.43;3.73;;;;;;;;;;382858;138;858916;-61
2021/05/25 03:51:27;;;;;;;4.61;3.47;;;;;;;;;;378364;140;859897;-59
2021/05/25 03:52:29;;;;;;;5.32;3.85;;;;;;;;;;384418;140;858778;-61
2021/05/25 03:53:31;;;;;;;8.58;3.51;;;;;;;;;;374375;140;858042;-58
2021/05/25 03:54:41;;;;;;;4.37;3.55;;;;;;;;;;383261;139;859614;-59
2021/05/25 03:56:15;;;;;;;5.54;3.42;;;;;;;;;;380410;140;858045;-59
2021/05/25 03:57:12;;;;;;;4.51;3.22;;;;;;;;;;372457;143;857853;-59
2021/05/25 03:59:22;;;;;;;5.34;3.63;;;;;;;;;;373908;141;857209;-60
2021/05/25 04:00:24;;;;;;;6.95;3.57;;;;;;;;;;375266;142;857858;-59
2021/05/25 04:01:26;;;;;;;6.59;3.49;;;;;;;;;;379122;139;857099;-59
2021/05/25 04:02:28;;;;;;;7.11;3.19;;;;;;;;;;379098;140;867824;-57
2021/05/25 04:03:29;;;;;;;10.29;3.64;;;;;;;;;;384466;138;857420;-59
2021/05/25 04:04:31;;;;;;;9.34;3.36;;;;;;;;;;385616;137;864856;-58
2021/05/25 04:05:33;;;;;;;5.36;3.08;;;;;;;;;;387185;137;865341;-58
2021/05/25 04:06:35;;;;;;;4.78;3.09;;;;;;;;;;384949;138;857410;-60
2021/05/25 04:07:36;;;;;;;6.56;3.11;;;;;;;;;;387165;137;865047;-59
2021/05/25 04:08:38;;;;;;;12.69;4.13;;;;;;;;;;386451;137;857163;-61
2021/05/25 04:09:40;;;;;;;6.55;3.09;;;;;;;;;;383033;138;857287;-60
2021/05/25 04:10:42;;;;;;;7.06;3.47;;;;;;;;;;385964;138;857202;-59
2021/05/25 04:11:44;;;;;;;11.29;4.33;;;;;;;;;;385448;138;857710;-58
2021/05/25 04:12:46;;;;;;;5.60;3.00;;;;;;;;;;384859;137;857280;-60
2021/05/25 04:13:47;;;;;;;8.19;3.27;;;;;;;;;;385115;138;858976;-60
2021/05/25 04:14:49;;;;;;;11.10;3.69;;;;;;;;;;382420;137;858187;-60
2021/05/25 04:15:52;;;;;;;11.93;3.56;;;;;;;;;;382780;138;858763;-58
2021/05/25 04:16:55;;;;;;;6.53;3.22;;;;;;;;;;386021;138;857305;-61
2021/05/25 04:17:57;;;;;;;10.24;3.69;;;;;;;;;;386488;137;865791;-60
2021/05/25 04:18:58;;;;;;;8.21;3.20;;;;;;;;;;386677;137;865327;-61
2021/05/25 04:20:00;;;;;;;8.43;3.47;;;;;;;;;;386496;137;865210;-58
2021/05/25 04:21:02;;;;;;;6.63;3.14;;;;;;;;;;380350;138;857314;-61
2021/05/25 04:22:04;;;;;;;10.53;3.15;;;;;;;;;;385720;137;857245;-59
2021/05/25 04:23:06;;;;;;;6.49;2.79;;;;;;;;;;385555;138;866541;-61
2021/05/25 04:24:07;;;;;;;6.44;3.19;;;;;;;;;;383189;139;858609;-62
2021/05/25 04:25:09;;;;;;;6.89;3.11;;;;;;;;;;385080;137;858649;-60
2021/05/25 04:26:11;;;;;;;5.80;2.91;;;;;;;;;;377633;141;864789;-60
2021/05/25 04:27:12;;;;;;;7.31;2.71;;;;;;;;;;379455;140;864883;-60
2021/05/25 04:28:14;;;;;;;9.07;3.45;;;;;;;;;;381566;139;857487;-60
2021/05/25 04:29:16;;;;;;;5.05;2.28;;;;;;;;;;381369;137;857254;-60
2021/05/25 04:30:20;;;;;;;9.43;2.46;;;;;;;;;;379285;137;866691;-61
2021/05/25 04:31:21;;;;;;;6.00;2.11;;;;;;;;;;379816;137;857430;-59
2021/05/25 04:32:23;;;;;;;6.62;2.37;;;;;;;22.71;100.00;112913.89;381819;137;858932;-61
2021/05/25 04:33:26;;;;;;;6.44;1.72;;;;;;;;;;379123;138;866605;-59
2021/05/25 04:34:28;;;;;;;5.09;2.15;;;;;;;;;;386292;137;865023;-57
2021/05/25 04:35:29;;;;;;;6.23;2.21;;;;;;;;;;379712;140;866691;-57
2021/05/25 04:36:33;;;;;;;6.72;2.60;;;;;;;;;;380935;139;857958;-59
2021/05/25 04:37:34;;;;;;;12.18;2.27;;;;;;;;;;379830;140;856920;-59
2021/05/25 04:38:36;;;;;;;7.76;2.12;;;;;;;;;;384455;137;857971;-58
2021/05/25 04:39:37;;;;;;;7.95;2.30;;;;;;;;;;385272;138;857433;-58
2021/05/25 04:40:44;;;;;;;6.58;2.36;;;;;;;;;;388259;138;857169;-59
2021/05/25 04:41:46;;;;;;;5.67;2.29;;;;;;;;;;388578;137;859056;-59
2021/05/25 04:42:47;;;;;;;6.69;2.10;;;;;;;;;;386629;137;857230;-61
2021/05/25 04:43:49;;;;;;;8.55;2.28;;;;;;;;;;385694;137;864852;-61
2021/05/25 04:44:50;;;;;;;8.96;2.20;;;;;;;;;;385811;137;857159;-60
2021/05/25 04:45:52;;;;;;;10.90;2.27;;;;;;;;;;384614;138;857302;-60
2021/05/25 04:46:54;;;;;;;7.24;2.53;;;;;;;;;;386831;138;857288;-59
2021/05/25 04:47:55;;;;;;;8.61;2.28;;;;;;;;;;387409;137;866559;-60
2021/05/25 04:48:57;;;;;;;7.76;2.21;;;;;;;;;;386858;138;864903;-64
2021/05/25 04:49:59;;;;;;;9.28;2.75;;;;;;;;;;386941;137;857249;-62
2021/05/25 04:51:00;;;;;;;7.27;1.95;;;;;;;;;;377199;141;857677;-63
2021/05/25 04:52:02;;;;;;;7.37;2.12;;;;;;;;;;388278;138;857355;-61
2021/05/25 04:53:04;;;;;;;8.34;1.99;;;;;;;;;;394526;134;864788;-60
2021/05/25 04:54:06;;;;;;;5.78;2.00;;;;;;;;;;393794;134;857201;-60
2021/05/25 04:55:08;;;;;;;6.98;2.25;;;;;;;;;;387996;137;857211;-61
2021/05/25 04:56:10;;;;;;;8.19;1.90;;;;;;;;;;386868;138;857204;-59
2021/05/25 04:57:12;;;;;;;7.16;2.49;;;;;;;;;;378220;140;858722;-64
2021/05/25 04:58:14;;;;;;;6.56;1.81;;;;;;;;;;385635;137;864822;-63
2021/05/25 04:59:15;;;;;;;9.99;2.01;;;;;;;;;;378752;138;864893;-63
2021/05/25 05:00:20;;;;;;;8.73;2.06;;;;;;;;;;379210;137;857266;-65
2021/05/25 05:01:22;;;;;;;8.19;2.06;;;;;;;;;;381653;137;857334;-62
2021/05/25 05:02:23;;;;;;;5.36;1.99;;;;;;;;;;383664;137;858155;-64
2021/05/25 05:03:26;;;;;;;5.25;1.95;;;;;;;;;;381504;137;860940;-63
2021/05/25 05:04:27;;;;;;;5.87;1.87;;;;;;;;;;382907;137;865256;-63
2021/05/25 05:05:29;;;;;;;6.31;2.06;;;;;;;;;;382441;137;857496;-63
2021/05/25 05:06:31;;;;;;;7.33;1.95;;;;;;;;;;382034;137;859833;-62
2021/05/25 05:07:33;;;;;;;6.93;1.94;;;;;;;;;;381528;137;858701;-62
2021/05/25 05:08:34;;;;;;;10.02;2.03;;;;;;;;;;381343;138;863953;-65
2021/05/25 05:09:36;;;;;;;6.67;2.19;;;;;;;;;;377236;140;857427;-63
2021/05/25 05:10:38;;;;;;;10.12;2.17;;;;;;;;;;384817;139;857751;-62
2021/05/25 05:11:40;;;;;;;5.76;2.07;;;;;;;;;;378645;140;857193;-63
2021/05/25 05:12:42;;;;;;;9.17;1.81;;;;;;;;;;380289;141;857212;-62
2021/05/25 05:13:44;;;;;;;6.16;1.85;;;;;;;;;;377977;140;857207;-62
2021/05/25 05:14:45;;;;;;;7.06;1.84;;;;;;;;;;377542;140;865833;-61
2021/05/25 05:15:47;;;;;;;6.71;1.98;;;;;;;;;;380063;139;858616;-59
2021/05/25 05:16:49;;;;;;;6.49;1.74;;;;;;;;;;383809;138;858159;-60
2021/05/25 05:17:50;;;;;;;5.26;1.87;;;;;;;;;;379275;141;865985;-61
2021/05/25 05:18:52;;;;;;;6.65;1.91;;;;;;;;;;378619;142;858353;-61
2021/05/25 05:19:54;;;;;;;6.29;1.67;;;;;;;;;;384759;138;866629;-61
2021/05/25 05:20:55;;;;;;;9.44;2.43;;;;;;;;;;387561;139;859057;-62
2021/05/25 05:21:57;;;;;;;5.88;1.88;;;;;;;;;;386462;137;857243;-63
2021/05/25 05:22:58;;;;;;;9.56;1.73;;;;;;;;;;383691;138;858878;-62
2021/05/25 05:24:00;;;;;;;3.50;1.34;;;;;;;;;;387627;139;857296;-63
2021/05/25 05:25:03;;;;;;;7.86;1.66;;;;;;;;;;386467;139;860393;-62
2021/05/25 05:26:05;;;;;;;5.29;1.60;;;;;;;;;;384328;138;864925;-63
2021/05/25 05:27:06;;;;;;;4.62;1.44;;;;;;;;;;383312;140;858019;-62
2021/05/25 05:28:08;;;;;;;5.71;1.78;;;;;;;;;;383351;139;857141;-63
2021/05/25 05:29:09;;;;;;;8.62;2.19;;;;;;;;;;384006;139;857186;-63
2021/05/25 05:30:12;;;;;;;8.73;1.57;;;;;;;;;;381810;140;857247;-63
2021/05/25 05:31:14;;;;;;;10.77;2.05;;;;;;;;;;384850;138;857325;-63
2021/05/25 05:32:15;;;;;;;9.84;1.97;;;;;;;;;;380105;140;857848;-61
2021/05/25 05:33:17;;;;;;;5.48;1.81;;;;;;;;;;384467;138;857219;-63
2021/05/25 05:34:18;;;;;;;4.96;1.98;;;;;;;;;;381347;138;857315;-64
2021/05/25 05:35:20;;;;;;;5.28;1.76;;;;;;;;;;380529;141;864802;-63
2021/05/25 05:36:22;;;;;;;9.31;1.68;;;;;;;;;;381123;139;857137;-62
2021/05/25 05:37:23;;;;;;;6.82;1.56;;;;;;;;;;375229;139;857363;-63
2021/05/25 05:38:25;;;;;;;4.51;1.38;;;;;;;;;;371692;145;857841;-63
2021/05/25 05:39:27;;;;;;;3.23;1.01;;;;;;;;;;378559;139;857375;-63
2021/05/25 05:40:29;;;;;;;9.64;1.73;;;;;;;;;;377342;140;857357;-61
2021/05/25 05:41:30;;;;;;;6.20;1.72;;;;;;;;;;380271;141;857375;-61
2021/05/25 05:42:32;;;;;;;4.70;1.47;;;;;;;;;;384528;137;868112;-62
2021/05/25 05:43:34;;;;;;;6.97;1.43;;;;;;;;;;385667;137;859078;-63
2021/05/25 05:44:35;;;;;;;4.03;1.26;;;;;;;;;;381383;141;857437;-63
2021/05/25 05:45:37;;;;;;;5.19;1.22;;;;;;;;;;385770;137;857180;-62
2021/05/25 05:46:39;;;;;;;8.21;1.49;;;;;;;;;;390436;137;857697;-63
2021/05/25 05:47:40;;;;;;;5.45;2.06;;;;;;;;;;384737;138;857281;-62
2021/05/25 05:48:42;;;;;;;4.52;1.41;;;;;;;;;;375871;138;857273;-64
2021/05/25 05:49:43;;;;;;;11.64;1.38;;;;;;;;;;385637;139;857239;-61
2021/05/25 05:50:47;;;;;;;3.41;1.25;;;;;;;;;;382697;138;864783;-64
2021/05/25 05:51:51;;;;;;;7.62;1.44;;;;;;;;;;384168;139;857850;-60
2021/05/25 05:52:53;;;;;;;3.62;1.44;;;;;;;;;;380540;138;857491;-63
2021/05/25 05:53:54;;;;;;;3.15;1.05;;;;;;;;;;380448;138;857366;-62
2021/05/25 05:54:56;;;;;;;4.84;1.47;;;;;;;;;;380569;139;857513;-63
2021/05/25 05:55:57;;;;;;;2.56;1.41;;;;;;;;;;379602;137;859120;-64
2021/05/25 05:56:59;;;;;;;4.54;1.19;;;;;;;;;;378773;137;858412;-63
2021/05/25 05:58:01;;;;;;;2.80;1.00;;;;;;;;;;373014;144;865411;-61
2021/05/25 05:59:03;;;;;;;2.71;1.11;;;;;;;;;;378683;139;857306;-59
2021/05/25 06:00:06;;;;;;;3.87;1.33;;;;;;;;;;376711;140;864883;-60
2021/05/25 06:01:09;;;;;;;3.81;0.90;;;;;;;;;;378770;140;857758;-60
2021/05/25 06:02:11;;;;;;;8.51;1.53;;;;;;;;;;379394;141;857154;-60
2021/05/25 06:03:13;;;;;;;6.49;1.11;;;;;;;;;;378681;139;859299;-60
2021/05/25 06:04:14;;;;;;;3.16;1.17;;;;;;;;;;378694;139;859389;-60
2021/05/25 06:05:16;;;;;;;5.37;1.08;;;;;;;;;;380707;138;857822;-60
2021/05/25 06:06:18;;;;;;;3.26;1.03;;;;;;;;;;380138;140;862143;-59